Time;durP1;ratioP1;P1;durP2;ratioP2;P2;SDS_P1;SDS_P2;PMS_P1;PMS_P2;Temp;Humidity;BMP_temperature;BMP_pressure;BME280_temperature;BME280_humidity;BME280_pressure;Samples;Min_cycle;Max_cycle;Signal;HPM_P1;HPM_P2
2021/10/16 00:00:04;;;;;;;21.37;14.58;;;;;;;1.97;85.28;100933.66;1767677;81;21030;-72
2021/10/16 00:02:35;;;;;;;22.58;14.83;;;;;;;1.95;85.32;100924.64;1805468;78;21178;-72
2021/10/16 00:05:04;;;;;;;23.42;15.25;;;;;;;1.95;85.34;100927.28;1827063;78;21054;-72
2021/10/16 00:07:32;;;;;;;23.45;14.85;;;;;;;1.95;85.38;100919.38;1821393;78;20975;-72
2021/10/16 00:09:59;;;;;;;28.90;15.48;;;;;;;1.95;85.46;100910.66;1827043;78;21070;-73
2021/10/16 00:12:25;;;;;;;23.15;15.38;;;;;;;1.96;85.53;100918.36;1826735;78;21533;-73
2021/10/16 00:14:52;;;;;;;21.90;14.43;;;;;;;1.97;85.63;100917.34;1824644;78;21094;-73
2021/10/16 00:17:21;;;;;;;25.32;16.45;;;;;;;2.00;85.70;100915.64;1827110;78;20983;-72
2021/10/16 00:19:48;;;;;;;24.75;16.35;;;;;;;2.01;85.79;100914.66;1825835;78;21116;-73
2021/10/16 00:22:14;;;;;;;23.75;16.05;;;;;;;2.03;85.91;100906.05;1827302;78;21396;-73
2021/10/16 00:24:42;;;;;;;24.05;16.02;;;;;;;2.06;86.06;100898.27;1826130;78;21557;-74
2021/10/16 00:27:09;;;;;;;28.73;17.67;;;;;;;2.10;86.19;100891.59;1827038;78;21106;-74
2021/10/16 00:29:36;;;;;;;25.40;16.45;;;;;;;2.11;86.26;100888.79;1825641;78;21550;-71
2021/10/16 00:32:03;;;;;;;24.37;16.30;;;;;;;2.16;86.36;100888.70;1825734;78;21105;-73
2021/10/16 00:34:30;;;;;;;23.98;16.23;;;;;;;2.17;86.42;100887.18;1827024;78;21033;-73
2021/10/16 00:36:58;;;;;;;24.27;16.50;;;;;;;2.18;86.48;100890.15;1827353;78;21026;-73
2021/10/16 00:39:25;;;;;;;22.95;16.05;;;;;;;2.19;86.50;100890.95;1825329;78;21614;-72
2021/10/16 00:41:52;;;;;;;24.00;15.53;;;;;;;2.22;86.54;100890.57;1827223;78;21038;-73
2021/10/16 00:44:22;;;;;;;24.67;15.90;;;;;;;2.22;86.52;100886.62;1826827;78;21452;-73
2021/10/16 00:46:50;;;;;;;22.42;15.65;;;;;;;2.23;86.60;100889.55;1814038;78;20999;-73
2021/10/16 00:49:17;;;;;;;23.02;15.85;;;;;;;2.26;86.62;100886.53;1799396;78;21133;-73
2021/10/16 00:51:44;;;;;;;23.27;16.32;;;;;;;2.26;86.62;100886.53;1819746;78;21494;-73
2021/10/16 00:54:11;;;;;;;26.33;15.50;;;;;;;2.27;86.61;100881.08;1796309;78;21011;-73
2021/10/16 00:56:40;;;;;;;25.05;15.75;;;;;;;2.26;86.58;100877.30;1814899;78;20995;-73
2021/10/16 00:59:07;;;;;;;21.82;15.55;;;;;;;2.23;86.54;100879.02;1806511;78;21078;-73
2021/10/16 01:01:36;;;;;;;23.40;15.55;;;;;;;2.21;86.53;100877.91;1804723;78;21090;-73
2021/10/16 01:04:04;;;;;;;21.20;15.00;;;;;;;2.21;86.47;100873.14;1815892;78;21131;-73
2021/10/16 01:06:35;;;;;;;22.48;15.30;;;;;;;2.20;86.48;100868.86;1794381;80;21021;-73
2021/10/16 01:09:07;;;;;;;22.35;15.72;;;;;;;2.19;86.43;100876.46;1741445;78;21482;-73
2021/10/16 01:11:40;;;;;;;24.43;15.85;;;;;;;2.16;86.43;100879.48;1821962;78;21533;-73
2021/10/16 01:14:10;;;;;;;21.48;14.80;;;;;;;2.15;86.45;100874.72;1808453;78;21968;-73
2021/10/16 01:16:40;;;;;;;25.90;16.32;;;;;;;2.16;86.48;100874.21;1827698;78;21105;-73
2021/10/16 01:19:14;;;;;;;24.00;16.57;;;;;;;2.17;86.47;100873.20;1815428;78;21074;-74
2021/10/16 01:21:47;;;;;;;24.12;16.15;;;;;;;2.17;86.51;100863.97;1797631;78;20991;-73
2021/10/16 01:24:15;;;;;;;24.25;16.60;;;;;;;2.16;86.54;100864.98;1812499;78;21068;-73
2021/10/16 01:26:45;;;;;;;24.70;16.17;;;;;;;2.15;86.60;100859.42;1826601;78;21604;-73
2021/10/16 01:29:17;;;;;;;21.05;15.00;;;;;;;2.17;86.68;100867.41;1810678;78;21074;-74
2021/10/16 01:31:44;;;;;;;24.15;16.12;;;;;;;2.17;86.75;100862.14;1808046;78;20980;-74
2021/10/16 01:34:11;;;;;;;23.15;15.25;;;;;;;2.18;86.83;100865.11;1815801;78;21042;-73
2021/10/16 01:36:47;;;;;;;23.38;15.20;;;;;;;2.22;86.88;100869.48;1818076;78;20975;-73
2021/10/16 01:39:17;;;;;;;21.87;15.15;;;;;;;2.26;86.96;100858.35;1763272;81;21003;-73
2021/10/16 01:41:46;;;;;;;19.62;13.80;;;;;;;2.31;87.06;100851.20;1768369;79;21037;-72
2021/10/16 01:44:14;;;;;;;20.00;13.72;;;;;;;2.34;87.16;100850.30;1737203;81;20994;-72
2021/10/16 01:46:41;;;;;;;20.90;13.95;;;;;;;2.37;87.30;100853.53;1751119;80;21078;-73
2021/10/16 01:49:13;;;;;;;20.23;14.58;;;;;;;2.40;87.48;100861.86;1760587;80;21234;-73
2021/10/16 01:51:44;;;;;;;19.07;13.60;;;;;;;2.44;87.70;100849.94;1794225;80;21816;-72
2021/10/16 01:54:11;;;;;;;23.50;13.70;;;;;;;2.51;87.87;100853.41;1789638;78;21100;-73
2021/10/16 01:56:39;;;;;;;20.88;14.23;;;;;;;2.56;88.09;100847.54;1765723;81;21110;-72
2021/10/16 02:02:19;;;;;;;22.13;14.78;;;;;;;2.72;88.43;100849.02;1722863;81;21013;-70
2021/10/16 02:04:49;;;;;;;18.40;13.18;;;;;;;2.82;88.60;100833.63;1730890;82;21138;-70
2021/10/16 02:07:16;;;;;;;18.55;13.95;;;;;;;2.91;88.68;100840.36;1714659;81;21117;-69
2021/10/16 02:09:44;;;;;;;20.35;14.95;;;;;;;2.97;88.82;100828.20;1724966;81;21095;-69
2021/10/16 02:12:15;;;;;;;22.75;14.87;;;;;;;3.03;88.92;100833.48;1731452;81;21105;-68
2021/10/16 02:14:51;;;;;;;22.65;15.10;;;;;;;3.13;89.03;100838.38;1734154;82;21136;-69
2021/10/16 02:17:27;;;;;;;19.48;12.73;;;;;;;3.20;89.08;100831.28;1729277;81;21453;-69
2021/10/16 02:20:02;;;;;;;18.15;12.47;;;;;;;3.31;89.17;100829.05;1734921;81;21287;-69
2021/10/16 02:22:37;;;;;;;19.42;12.63;;;;;;;3.36;89.16;100824.80;1717758;81;21057;-69
2021/10/16 02:25:23;;;;;;;18.70;13.58;;;;;;;3.40;89.18;100823.87;1708788;81;21180;-69
2021/10/16 02:27:55;;;;;;;21.62;15.93;;;;;;;3.46;89.25;100825.20;1730142;81;21077;-69
2021/10/16 02:30:26;;;;;;;20.85;14.20;;;;;;;3.51;89.27;100826.70;1730534;81;21837;-68
2021/10/16 02:32:54;;;;;;;17.40;12.37;;;;;;;3.58;89.30;100824.58;1698410;82;21169;-69
2021/10/16 02:35:23;;;;;;;19.20;13.90;;;;;;;3.64;89.32;100823.77;1731440;81;21065;-69
2021/10/16 02:37:51;;;;;;;18.57;13.60;;;;;;;3.70;89.37;100832.20;1734073;81;21099;-69
2021/10/16 02:40:35;;;;;;;20.45;14.87;;;;;;;3.77;89.41;100826.39;1725347;81;21021;-69
2021/10/16 02:43:22;;;;;;;20.35;14.43;;;;;;;3.85;89.41;100826.19;1703370;84;21557;-69
2021/10/16 02:46:04;;;;;;;18.20;13.22;;;;;;;3.91;89.37;100825.86;1721279;81;21166;-68
2021/10/16 02:48:37;;;;;;;22.13;15.80;;;;;;;3.96;89.35;100822.09;1734481;81;20951;-70
2021/10/16 02:51:18;;;;;;;21.85;16.15;;;;;;;4.00;89.34;100820.15;1732482;81;20967;-69
2021/10/16 02:53:54;;;;;;;21.20;15.70;;;;;;;4.08;89.36;100824.91;1729631;81;21278;-68
2021/10/16 02:56:22;;;;;;;21.50;15.30;;;;;;;4.16;89.31;100811.48;1733710;81;21042;-68
2021/10/16 02:58:51;;;;;;;24.10;16.95;;;;;;;4.22;89.27;100814.09;1734349;81;21148;-68
2021/10/16 03:01:20;;;;;;;21.52;14.65;;;;;;;4.29;89.15;100815.91;1724457;81;21018;-69
2021/10/16 03:03:47;;;;;;;19.87;13.93;;;;;;;4.34;89.09;100814.24;1711294;81;21164;-71
2021/10/16 03:08:59;;;;;;;18.90;14.15;;;;;;;4.45;89.02;100807.51;1692207;84;21514;-70
2021/10/16 03:11:25;;;;;;;19.70;13.70;;;;;;;4.50;88.98;100810.83;1692049;83;21117;-70
2021/10/16 03:13:54;;;;;;;18.30;13.78;;;;;;;4.54;88.99;100810.22;1688905;83;21124;-69
2021/10/16 03:16:23;;;;;;;21.55;15.30;;;;;;;4.57;88.93;100798.38;1679290;84;21050;-69
2021/10/16 03:18:53;;;;;;;22.87;15.32;;;;;;;4.58;88.87;100805.31;1691397;83;21054;-70
2021/10/16 03:21:20;;;;;;;18.05;13.60;;;;;;;4.62;88.93;100807.31;1692471;84;21145;-69
2021/10/16 03:23:48;;;;;;;21.23;14.38;;;;;;;4.69;88.88;100808.61;1691465;83;21095;-69
2021/10/16 03:26:17;;;;;;;20.97;14.65;;;;;;;4.74;88.82;100807.95;1692520;84;21003;-69
2021/10/16 03:28:44;;;;;;;19.80;14.60;;;;;;;4.78;88.73;100802.56;1693046;83;21042;-70
2021/10/16 03:31:13;;;;;;;20.82;14.83;;;;;;;4.78;88.70;100805.21;1665233;83;21148;-70
2021/10/16 03:33:40;;;;;;;21.85;14.80;;;;;;;4.77;88.66;100804.41;1679437;84;21047;-68
2021/10/16 03:36:10;;;;;;;21.07;14.58;;;;;;;4.79;88.63;100806.31;1675246;85;21109;-70
2021/10/16 03:38:40;;;;;;;21.93;14.75;;;;;;;4.81;88.63;100810.08;1690493;84;20994;-69
2021/10/16 03:41:08;;;;;;;20.00;14.40;;;;;;;4.82;88.63;100804.56;1692540;84;21047;-68
2021/10/16 03:43:41;;;;;;;21.48;15.65;;;;;;;4.84;88.61;100804.36;1680139;84;21023;-68
2021/10/16 03:46:16;;;;;;;21.12;16.10;;;;;;;4.85;88.60;100802.81;1692304;83;21557;-68
2021/10/16 03:48:50;;;;;;;21.60;15.58;;;;;;;4.88;88.58;100804.23;1655757;84;21840;-69
2021/10/16 03:51:26;;;;;;;24.30;17.12;;;;;;;4.91;88.59;100801.16;1661315;86;20988;-70
2021/10/16 03:53:54;;;;;;;22.85;17.02;;;;;;;4.97;88.61;100809.58;1691151;84;20983;-69
2021/10/16 03:56:21;;;;;;;24.57;17.57;;;;;;;5.03;88.65;100803.92;1693200;84;21101;-69
2021/10/16 03:58:51;;;;;;;24.40;17.17;;;;;;;5.10;88.68;100808.16;1692461;83;21058;-69
2021/10/16 04:01:23;;;;;;;22.35;16.15;;;;;;;5.19;88.63;100802.08;1692981;84;21168;-69
2021/10/16 04:03:50;;;;;;;21.00;15.72;;;;;;;5.27;88.54;100803.67;1691189;83;21086;-70
2021/10/16 04:06:19;;;;;;;20.92;15.50;;;;;;;5.32;88.45;100803.30;1691786;83;21010;-70
2021/10/16 04:08:47;;;;;;;22.48;17.05;;;;;;;5.38;88.39;100805.08;1691985;84;21305;-70
2021/10/16 04:11:19;;;;;;;21.07;15.95;;;;;;;5.46;88.34;100806.64;1679789;85;21042;-70
2021/10/16 04:13:48;;;;;;;22.35;16.25;;;;;;;5.51;88.25;100798.06;1682886;84;21550;-70
2021/10/16 04:16:15;;;;;;;21.62;15.70;;;;;;;5.56;88.17;100802.17;1679068;84;21044;-71
2021/10/16 04:18:44;;;;;;;19.48;14.45;;;;;;;5.59;88.05;100806.55;1692107;84;20947;-70
2021/10/16 04:21:12;;;;;;;21.30;15.43;;;;;;;5.59;87.92;100810.53;1675810;83;21023;-70
2021/10/16 04:23:42;;;;;;;20.50;15.10;;;;;;;5.56;87.88;100806.15;1692273;83;20995;-70
2021/10/16 04:26:11;;;;;;;21.93;16.55;;;;;;;5.53;87.92;100807.42;1679671;84;21106;-70
2021/10/16 04:28:40;;;;;;;22.50;16.57;;;;;;;5.54;88.01;100813.52;1692615;84;21011;-70
2021/10/16 04:31:18;;;;;;;24.80;17.12;;;;;;;5.59;88.12;100818.97;1688670;84;21113;-70
2021/10/16 04:33:44;;;;;;;22.17;16.75;;;;;;;5.65;88.13;100808.83;1680547;85;20968;-70
2021/10/16 04:36:11;;;;;;;20.65;15.38;;;;;;;5.72;88.12;100810.09;1691944;84;21066;-70
2021/10/16 04:38:45;;;;;;;21.87;15.70;;;;;;;5.75;88.06;100799.05;1677340;85;21566;-70
2021/10/16 04:41:08;;;;;;;20.97;15.55;;;;;;;5.75;88.03;100798.53;1675557;84;21053;-70
2021/10/16 04:43:35;;;;;;;20.62;15.83;;;;;;;5.74;88.02;100791.62;1660980;86;21055;-69
2021/10/16 04:46:03;;;;;;;20.60;15.35;;;;;;;5.75;88.08;100793.23;1690911;84;21036;-70
2021/10/16 04:48:38;;;;;;;23.75;17.23;;;;;;;5.76;88.12;100798.84;1656159;85;21521;-71
2021/10/16 04:51:19;;;;;;;21.90;16.02;;;;;;;5.76;88.19;100796.20;1692202;84;21126;-70
2021/10/16 04:54:00;;;;;;;23.42;17.07;;;;;;;5.81;88.24;100795.02;1654365;85;21158;-70
2021/10/16 04:56:34;;;;;;;21.97;15.95;;;;;;;5.89;88.25;100797.91;1691902;83;21082;-70
2021/10/16 04:59:03;;;;;;;21.45;15.55;;;;;;;5.94;88.23;100792.77;1691934;84;21483;-70
2021/10/16 05:01:35;;;;;;;24.77;17.23;;;;;;;5.97;88.22;100789.69;1679436;85;21024;-71
2021/10/16 05:04:05;;;;;;;23.60;16.77;;;;;;;6.03;88.22;100790.66;1670209;84;21403;-69
2021/10/16 05:06:40;;;;;;;22.82;16.97;;;;;;;6.08;88.21;100784.16;1680464;85;20961;-69
2021/10/16 05:09:21;;;;;;;21.70;16.27;;;;;;;6.11;88.19;100780.54;1683049;84;21042;-69
2021/10/16 05:11:57;;;;;;;23.27;17.27;;;;;;;6.14;88.23;100780.62;1679248;85;21679;-72
2021/10/16 05:14:41;;;;;;;22.30;16.48;;;;;;;6.19;88.25;100786.08;1691392;84;21078;-70
2021/10/16 05:17:22;;;;;;;23.32;17.10;;;;;;;6.25;88.27;100785.20;1691110;84;21480;-70
2021/10/16 05:20:13;;;;;;;22.42;16.95;;;;;;;6.29;88.33;100793.00;1691131;83;21265;-69
2021/10/16 05:22:44;;;;;;;23.07;17.55;;;;;;;6.33;88.39;100794.16;1661058;84;21456;-70
2021/10/16 05:25:22;;;;;;;22.15;17.32;;;;;;;6.41;88.43;100796.21;1667050;84;20971;-70
2021/10/16 05:27:50;;;;;;;24.45;18.20;;;;;;;6.47;88.46;100795.33;1691868;83;21034;-70
2021/10/16 05:30:19;;;;;;;22.98;17.07;;;;;;;6.54;88.49;100796.84;1692621;84;21167;-70
2021/10/16 05:32:47;;;;;;;20.82;15.70;;;;;;;6.58;88.44;100782.13;1692894;84;21031;-69
2021/10/16 05:35:15;;;;;;;23.25;17.32;;;;;;;6.60;88.48;100787.19;1692941;83;21053;-70
2021/10/16 05:37:42;;;;;;;21.27;15.90;;;;;;;6.60;88.54;100783.20;1692267;83;21134;-70
2021/10/16 05:40:12;;;;;;;22.80;17.55;;;;;;;6.61;88.63;100784.82;1680317;84;21431;-69
2021/10/16 05:42:40;;;;;;;20.75;16.02;;;;;;;6.64;88.75;100784.38;1692937;84;21125;-71
2021/10/16 05:45:08;;;;;;;25.92;18.95;;;;;;;6.70;88.86;100780.82;1692005;83;21082;-70
2021/10/16 05:47:36;;;;;;;24.52;18.20;;;;;;;6.78;89.01;100777.06;1692241;83;21018;-70
2021/10/16 05:50:14;;;;;;;24.15;18.75;;;;;;;6.90;89.17;100789.02;1681162;85;21067;-73
2021/10/16 05:52:44;;;;;;;23.32;17.12;;;;;;;7.00;89.20;100791.94;1689017;82;21066;-71
2021/10/16 05:55:13;;;;;;;24.05;18.20;;;;;;;7.09;89.19;100785.27;1652846;86;21158;-71
2021/10/16 05:57:42;;;;;;;24.18;19.32;;;;;;;7.13;89.23;100789.59;1685386;84;21126;-70
2021/10/16 06:00:14;;;;;;;26.55;19.42;;;;;;;7.21;89.23;100799.91;1680317;85;21007;-69
2021/10/16 06:02:47;;;;;;;25.32;19.90;;;;;;;7.25;89.28;100790.44;1692327;83;21510;-70
2021/10/16 06:05:16;;;;;;;26.62;19.77;;;;;;;7.28;89.40;100794.77;1679591;85;21455;-70
2021/10/16 06:07:45;;;;;;;25.82;20.37;;;;;;;7.36;89.43;100800.25;1692526;83;21139;-72
2021/10/16 06:10:14;;;;;;;26.68;20.55;;;;;;;7.43;89.43;100799.63;1689604;84;21094;-70
2021/10/16 06:12:43;;;;;;;28.15;20.97;;;;;;;7.51;89.42;100797.16;1692753;83;21446;-69
2021/10/16 06:15:18;;;;;;;26.85;19.32;;;;;;;7.57;89.44;100792.27;1660160;85;21054;-70
2021/10/16 06:17:46;;;;;;;25.50;18.48;;;;;;;7.65;89.44;100787.91;1693603;83;21046;-69
2021/10/16 06:20:15;;;;;;;25.92;19.90;;;;;;;7.72;89.40;100790.45;1681159;83;21263;-70
2021/10/16 06:22:44;;;;;;;24.25;18.02;;;;;;;7.79;89.36;100791.66;1682158;85;20981;-70
2021/10/16 06:25:12;;;;;;;25.85;20.00;;;;;;;7.83;89.32;100791.48;1706489;83;21038;-71
2021/10/16 06:27:42;;;;;;;22.93;18.48;;;;;;;7.88;89.29;100785.75;1694731;84;20998;-70
2021/10/16 06:30:16;;;;;;;21.57;17.37;;;;;;;7.92;89.21;100786.09;1694743;84;20991;-72
2021/10/16 06:32:56;;;;;;;24.87;19.25;;;;;;;7.95;89.17;100791.75;1693817;83;21671;-71
2021/10/16 06:35:26;;;;;;;24.13;18.87;;;;;;;7.97;89.19;100785.69;1672321;85;21004;-70
2021/10/16 06:37:56;;;;;;;24.02;18.82;;;;;;;8.02;89.21;100786.84;1693021;83;21351;-71
2021/10/16 06:40:23;;;;;;;24.15;17.50;;;;;;;8.05;89.15;100783.70;1692144;84;21070;-70
2021/10/16 06:42:52;;;;;;;25.57;19.80;;;;;;;8.07;89.14;100779.78;1692245;83;21027;-72
2021/10/16 06:45:37;;;;;;;22.82;17.62;;;;;;;8.12;89.20;100773.21;1691400;84;21503;-70
2021/10/16 06:48:06;;;;;;;24.32;19.00;;;;;;;8.21;89.20;100778.46;1688020;83;21018;-68
2021/10/16 06:50:37;;;;;;;25.52;19.73;;;;;;;8.31;89.24;100776.53;1677557;83;21063;-69
2021/10/16 06:53:05;;;;;;;26.55;20.82;;;;;;;8.44;89.27;100774.14;1680064;84;21056;-70
2021/10/16 06:55:32;;;;;;;25.00;20.05;;;;;;;8.57;89.18;100777.05;1692323;84;21117;-70
2021/10/16 06:58:03;;;;;;;21.73;16.35;;;;;;;8.66;89.08;100768.97;1680146;84;21304;-70
2021/10/16 07:00:31;;;;;;;23.22;18.73;;;;;;;8.77;88.96;100778.75;1692779;84;21035;-69
2021/10/16 07:03:02;;;;;;;22.62;18.65;;;;;;;8.83;88.76;100783.65;1676228;84;21040;-70
2021/10/16 07:05:32;;;;;;;23.40;18.23;;;;;;;8.91;88.54;100787.23;1691956;84;21066;-70
2021/10/16 07:08:00;;;;;;;25.27;19.32;;;;;;;8.99;88.26;100788.20;1691915;84;21042;-70
2021/10/16 07:10:29;;;;;;;23.95;18.25;;;;;;;9.08;87.94;100793.92;1679630;84;21904;-70
2021/10/16 07:13:10;;;;;;;22.30;17.82;;;;;;;9.17;87.50;100793.81;1691752;84;37620;-71
2021/10/16 07:15:38;;;;;;;23.75;18.12;;;;;;;9.26;87.01;100795.03;1692240;84;20968;-70
2021/10/16 07:18:07;;;;;;;19.75;16.17;;;;;;;9.33;86.42;100790.88;1693867;83;21392;-70
2021/10/16 07:20:42;;;;;;;23.00;17.90;;;;;;;9.43;85.79;100795.55;1679600;85;21561;-69
2021/10/16 07:23:20;;;;;;;23.73;18.37;;;;;;;9.45;85.09;100792.13;1692518;83;21967;-71
2021/10/16 07:26:06;;;;;;;22.65;18.65;;;;;;;9.48;84.71;100797.78;1680757;84;21032;-70
2021/10/16 07:28:34;;;;;;;21.50;17.23;;;;;;;9.51;84.19;100791.97;1688185;83;21117;-70
2021/10/16 07:31:01;;;;;;;24.32;18.67;;;;;;;9.53;83.77;100788.51;1667048;85;21447;-70
2021/10/16 07:33:28;;;;;;;22.05;18.15;;;;;;;9.53;83.31;100791.17;1692607;83;21545;-69
2021/10/16 07:35:57;;;;;;;22.98;17.62;;;;;;;9.55;83.02;100801.61;1691341;83;21149;-70
2021/10/16 07:38:27;;;;;;;23.55;18.70;;;;;;;9.54;82.56;100803.48;1682556;84;21073;-71
2021/10/16 07:40:53;;;;;;;25.15;19.32;;;;;;;9.53;82.12;100797.84;1691883;84;21043;-70
2021/10/16 07:43:20;;;;;;;23.22;17.98;;;;;;;9.49;81.95;100790.05;1679576;85;21054;-71
2021/10/16 07:45:48;;;;;;;22.90;17.85;;;;;;;9.48;81.79;100790.31;1691446;83;21186;-70
2021/10/16 07:48:15;;;;;;;24.85;18.20;;;;;;;9.44;81.51;100787.83;1679985;83;21050;-70
2021/10/16 07:50:44;;;;;;;24.35;17.95;;;;;;;9.43;81.37;100779.03;1675356;84;21005;-71
2021/10/16 07:53:15;;;;;;;25.02;19.37;;;;;;;9.41;81.22;100775.81;1655603;85;21590;-70
2021/10/16 07:55:43;;;;;;;23.30;17.65;;;;;;;9.39;81.06;100773.91;1675684;85;21000;-70
2021/10/16 07:58:10;;;;;;;20.65;15.85;;;;;;;9.39;80.98;100768.58;1692910;83;21129;-71
2021/10/16 08:00:41;;;;;;;22.90;17.92;;;;;;;9.37;80.83;100763.47;1669589;84;21178;-71
2021/10/16 08:03:09;;;;;;;20.15;16.23;;;;;;;9.36;80.72;100763.20;1692056;84;21015;-70
2021/10/16 08:05:36;;;;;;;20.23;16.12;;;;;;;9.35;80.50;100772.79;1675868;85;21013;-69
2021/10/16 08:08:05;;;;;;;22.05;17.40;;;;;;;9.33;80.26;100776.20;1690911;84;21405;-71
2021/10/16 08:10:32;;;;;;;22.15;18.00;;;;;;;9.31;79.97;100768.97;1689991;84;21061;-69
2021/10/16 08:12:59;;;;;;;19.85;15.80;;;;;;;9.30;79.84;100763.36;1691726;84;21142;-69
2021/10/16 08:15:26;;;;;;;19.17;14.80;;;;;;;9.36;79.84;100775.72;1679121;84;20999;-70
2021/10/16 08:17:56;;;;;;;21.35;17.30;;;;;;;9.38;79.46;100783.77;1689568;83;21716;-70
2021/10/16 08:20:28;;;;;;;22.67;17.27;;;;;;;9.39;78.92;100796.56;1679007;85;21038;-69
2021/10/16 08:22:56;;;;;;;22.07;17.27;;;;;;;9.36;78.57;100805.05;1690922;83;20971;-71
2021/10/16 08:25:23;;;;;;;17.77;14.65;;;;;;;9.33;78.53;100797.00;1680019;83;21100;-70
2021/10/16 08:27:51;;;;;;;20.45;16.02;;;;;;;9.38;78.52;100791.77;1692296;84;21014;-70
2021/10/16 08:30:19;;;;;;;21.35;16.80;;;;;;;9.42;78.37;100797.95;1692165;84;21019;-70
2021/10/16 08:32:54;;;;;;;21.40;17.10;;;;;;;9.43;78.40;100796.36;1691633;84;21047;-71
2021/10/16 08:35:22;;;;;;;22.98;16.30;;;;;;;9.48;78.22;100792.45;1692829;83;21019;-70
2021/10/16 08:37:50;;;;;;;21.60;16.87;;;;;;;9.51;77.98;100791.97;1694546;83;21103;-70
2021/10/16 08:40:17;;;;;;;24.32;17.73;;;;;;;9.54;77.86;100781.31;1693392;83;21002;-70
2021/10/16 08:42:45;;;;;;;22.75;17.45;;;;;;;9.57;77.91;100777.62;1680741;85;20944;-70
2021/10/16 08:45:20;;;;;;;22.73;16.80;;;;;;;9.66;77.97;100777.23;1692098;84;21007;-70
2021/10/16 08:47:47;;;;;;;21.33;17.12;;;;;;;9.74;77.94;100777.62;1680176;84;20976;-70
2021/10/16 08:50:15;;;;;;;20.23;16.00;;;;;;;9.81;77.82;100776.92;1690733;83;21149;-70
2021/10/16 08:52:49;;;;;;;20.33;16.00;;;;;;;9.89;77.66;100781.55;1692388;84;21634;-70
2021/10/16 08:55:23;;;;;;;20.47;15.90;;;;;;;9.96;77.47;100783.50;1679599;85;21393;-70
2021/10/16 08:57:52;;;;;;;22.52;17.10;;;;;;;10.04;77.11;100779.89;1692330;84;21578;-70
2021/10/16 09:00:51;;;;;;;20.23;16.00;;;;;;;10.08;76.75;100783.67;1693039;83;21062;-70
2021/10/16 09:03:40;;;;;;;19.37;14.43;;;;;;;10.16;76.60;100785.63;1693440;83;21399;-70
2021/10/16 09:06:30;;;;;;;19.03;14.70;;;;;;;10.26;76.29;100767.09;1691922;84;21261;-70
2021/10/16 09:09:12;;;;;;;17.42;13.43;;;;;;;10.38;76.11;100769.10;1693002;83;21274;-70
2021/10/16 09:11:46;;;;;;;20.00;14.53;;;;;;;10.50;75.88;100768.98;1692014;84;21058;-69
2021/10/16 09:14:23;;;;;;;20.07;14.57;;;;;;;10.61;75.46;100759.20;1692107;83;21353;-71
2021/10/16 09:17:00;;;;;;;19.90;14.80;;;;;;;10.70;75.05;100762.50;1691460;84;21301;-68
2021/10/16 09:19:33;;;;;;;15.73;12.13;;;;;;;10.83;74.67;100763.16;1691756;83;21354;-69
2021/10/16 09:22:10;;;;;;;20.43;15.10;;;;;;;10.92;73.95;100761.61;1674863;84;21090;-70
2021/10/16 09:24:49;;;;;;;17.17;13.47;;;;;;;11.01;73.67;100756.88;1691602;84;21386;-70
2021/10/16 09:27:24;;;;;;;16.17;12.80;;;;;;;11.14;73.15;100761.53;1691700;83;21319;-71
2021/10/16 09:30:05;;;;;;;16.40;12.47;;;;;;;11.20;72.40;100764.53;1660648;85;21256;-70
2021/10/16 09:32:33;;;;;;;16.50;12.97;;;;;;;11.19;71.46;100778.97;1660053;85;21384;-69
2021/10/16 09:35:12;;;;;;;17.40;14.00;;;;;;;11.20;71.21;100785.92;1692273;83;21297;-70
2021/10/16 09:37:52;;;;;;;15.40;11.97;;;;;;;11.22;71.04;100786.45;1679967;84;21233;-70
2021/10/16 09:40:43;;;;;;;15.00;11.57;;;;;;;11.30;70.93;100787.33;1686299;83;21249;-69
2021/10/16 09:43:21;;;;;;;13.33;11.17;;;;;;;11.33;70.06;100776.66;1690994;83;21531;-70
2021/10/16 09:45:50;;;;;;;14.57;10.63;;;;;;;11.32;69.43;100779.04;1691916;83;21298;-69
2021/10/16 09:48:36;;;;;;;14.23;10.33;;;;;;;11.32;69.15;100769.68;1651985;84;21139;-70
2021/10/16 09:51:04;;;;;;;13.53;11.40;;;;;;;11.33;68.58;100765.97;1691610;83;21603;-71
2021/10/16 09:53:33;;;;;;;14.33;9.90;;;;;;;11.36;68.44;100769.47;1692388;84;21272;-70
2021/10/16 09:56:01;;;;;;;13.43;10.60;;;;;;;11.40;67.88;100771.36;1678360;84;21854;-70
2021/10/16 09:58:28;;;;;;;13.60;10.20;;;;;;;11.47;67.81;100773.27;1692616;83;21372;-70
2021/10/16 10:00:58;;;;;;;13.30;9.37;;;;;;;11.59;67.87;100763.73;1691462;84;21942;-71
2021/10/16 10:03:25;;;;;;;13.40;9.23;;;;;;;11.73;67.37;100766.21;1692053;83;21259;-71
2021/10/16 10:05:53;;;;;;;10.70;8.33;;;;;;;11.84;66.96;100759.06;1692277;84;21246;-70
2021/10/16 10:08:20;;;;;;;10.00;7.57;;;;;;;11.97;66.69;100753.23;1692781;83;21296;-72
2021/10/16 10:10:48;;;;;;;12.57;9.03;;;;;;;12.10;65.52;100745.27;1675779;84;21289;-71
2021/10/16 10:13:15;;;;;;;10.90;7.97;;;;;;;12.19;65.60;100742.89;1691786;84;21330;-71
2021/10/16 10:15:44;;;;;;;12.40;7.87;;;;;;;12.30;65.50;100742.38;1679970;84;21256;-70
2021/10/16 10:21:04;;;;;;;12.57;9.10;;;;;;;12.33;64.11;100743.20;1691445;83;21311;-71
2021/10/16 10:23:31;;;;;;;11.27;8.53;;;;;;;12.31;63.97;100738.12;1679615;85;21391;-70
2021/10/16 10:26:42;;;;;;;11.57;8.27;;;;;;;12.34;63.94;100732.74;1679644;83;21331;-71
2021/10/16 10:29:16;;;;;;;10.63;7.73;;;;;;;12.32;63.38;100734.36;1677223;83;21316;-71
2021/10/16 10:31:54;;;;;;;10.13;6.80;;;;;;;12.24;62.94;100736.23;1646898;86;21353;-70
2021/10/16 10:34:38;;;;;;;9.57;7.10;;;;;;;12.17;62.28;100741.00;1660992;86;21379;-71
2021/10/16 10:37:12;;;;;;;11.03;8.00;;;;;;;12.08;62.56;100737.24;1692980;83;21378;-70
2021/10/16 10:39:43;;;;;;;10.67;7.93;;;;;;;12.09;62.87;100729.47;1691154;83;21234;-69
2021/10/16 10:42:15;;;;;;;10.33;8.10;;;;;;;12.19;62.88;100726.28;1691737;83;21195;-71
2021/10/16 10:44:48;;;;;;;11.67;8.60;;;;;;;12.31;61.56;100722.59;1679927;84;22023;-70
2021/10/16 10:47:34;;;;;;;10.87;8.27;;;;;;;12.29;62.11;100714.80;1691077;83;21821;-70
2021/10/16 10:50:08;;;;;;;12.13;8.97;;;;;;;12.40;62.53;100712.43;1694799;83;21270;-69
2021/10/16 10:53:11;;;;;;;11.23;8.70;;;;;;;12.59;62.64;100714.59;1691822;84;21362;-71
2021/10/16 10:56:01;;;;;;;11.07;8.53;;;;;;;12.80;62.47;100702.82;1679161;84;21199;-70
2021/10/16 10:58:56;;;;;;;11.83;9.20;;;;;;;13.20;60.54;100689.11;1679428;84;21359;-71
2021/10/16 11:01:53;;;;;;;11.70;8.83;;;;;;;13.20;60.54;100689.11;1692188;83;21400;-71
2021/10/16 11:04:37;;;;;;;12.17;8.50;;;;;;;13.21;60.42;100684.01;1678275;84;21395;-71
2021/10/16 11:07:12;;;;;;;12.43;9.90;;;;;;;13.18;60.30;100688.57;1676398;84;21326;-70
2021/10/16 11:09:40;;;;;;;12.63;9.57;;;;;;;13.10;59.99;100687.80;1658646;84;21334;-70
2021/10/16 11:12:08;;;;;;;12.47;10.07;;;;;;;12.97;59.92;100684.32;1678163;85;21627;-70
2021/10/16 11:14:38;;;;;;;13.27;9.80;;;;;;;12.83;60.30;100686.72;1691633;83;21421;-70
2021/10/16 11:17:09;;;;;;;14.50;10.83;;;;;;;12.71;60.51;100684.32;1692283;83;21767;-71
2021/10/16 11:19:56;;;;;;;12.80;10.40;;;;;;;12.61;60.88;100682.98;1691921;83;21203;-71
2021/10/16 11:22:26;;;;;;;13.63;10.07;;;;;;;12.58;61.28;100689.67;1691878;83;21398;-71
2021/10/16 11:25:01;;;;;;;14.57;11.10;;;;;;;12.55;61.25;100682.70;1678694;83;21426;-70
2021/10/16 11:27:30;;;;;;;14.37;11.07;;;;;;;12.47;61.67;100682.70;1692274;83;21708;-70
2021/10/16 11:29:57;;;;;;;14.77;11.80;;;;;;;12.42;61.86;100690.19;1679370;84;21372;-71
2021/10/16 11:32:25;;;;;;;14.13;10.90;;;;;;;12.40;61.68;100682.14;1692020;84;21417;-72
2021/10/16 11:35:05;;;;;;;15.03;11.47;;;;;;;12.39;61.90;100686.69;1691302;84;21338;-71
2021/10/16 11:37:47;;;;;;;15.50;11.57;;;;;;;12.46;62.28;100685.64;1681996;84;21107;-71
2021/10/16 11:40:17;;;;;;;14.63;10.75;;;;;;;12.58;61.73;100680.83;1658194;84;21353;-71
2021/10/16 11:42:51;;;;;;;16.00;11.17;;;;;;;12.67;61.35;100677.36;1678496;83;21019;-70
2021/10/16 11:45:27;;;;;;;16.90;12.30;;;;;;;12.81;61.34;100675.48;1685844;83;21308;-72